Time;durP1;ratioP1;P1;durP2;ratioP2;P2;SDS_P1;SDS_P2;PMS_P1;PMS_P2;Temp;Humidity;BMP_temperature;BMP_pressure;BME280_temperature;BME280_humidity;BME280_pressure;Samples;Min_cycle;Max_cycle;Signal;HPM_P1;HPM_P2
2023/04/06 00:01:40;;;;;;;6.72;5.68;;;6.30;45.40;;;;;;5030698;28;20189;-77
2023/04/06 00:04:07;;;;;;;9.13;5.30;;;6.30;45.50;;;;;;5031760;28;20181;-78
2023/04/06 00:06:33;;;;;;;8.38;6.13;;;6.20;45.60;;;;;;5016433;28;20206;-78
2023/04/06 00:09:00;;;;;;;9.02;6.78;;;6.20;45.70;;;;;;4999834;28;20216;-78
2023/04/06 00:11:26;;;;;;;8.40;5.80;;;6.20;45.90;;;;;;5014222;28;20173;-78
2023/04/06 00:13:52;;;;;;;9.00;6.63;;;6.20;45.90;;;;;;5035722;28;20281;-78
2023/04/06 00:16:19;;;;;;;7.90;6.47;;;6.20;46.00;;;;;;5032041;28;20957;-78
2023/04/06 00:18:45;;;;;;;8.75;5.93;;;6.20;46.30;;;;;;5032782;28;20181;-79
2023/04/06 00:21:14;;;;;;;9.10;6.27;;;6.20;47.00;;;;;;5019267;28;20171;-78
2023/04/06 00:23:40;;;;;;;12.77;8.32;;;6.20;46.50;;;;;;5010609;28;20205;-78
2023/04/06 00:26:06;;;;;;;9.65;7.15;;;6.10;46.90;;;;;;5010696;28;20194;-78
2023/04/06 00:28:32;;;;;;;9.30;7.60;;;6.10;47.00;;;;;;5010751;28;20170;-78
2023/04/06 00:30:59;;;;;;;10.77;8.25;;;6.10;46.80;;;;;;4994612;28;20171;-78
2023/04/06 00:33:25;;;;;;;12.10;8.67;;;6.10;48.10;;;;;;4994110;28;20869;-78
2023/04/06 00:35:51;;;;;;;10.95;8.10;;;6.10;48.70;;;;;;5011817;28;20213;-78
2023/04/06 00:38:17;;;;;;;10.03;6.90;;;6.20;48.20;;;;;;4978208;28;20181;-78
2023/04/06 00:40:46;;;;;;;8.65;7.28;;;6.20;48.00;;;;;;5011311;28;20627;-79
2023/04/06 00:43:13;;;;;;;12.25;8.55;;;6.20;47.70;;;;;;4993486;28;20210;-79
2023/04/06 00:45:40;;;;;;;9.30;6.25;;;6.20;48.80;;;;;;5011089;28;20209;-79
2023/04/06 00:48:07;;;;;;;18.55;8.10;;;6.20;48.00;;;;;;5011215;28;20607;-78
2023/04/06 00:50:33;;;;;;;8.98;7.50;;;6.20;48.50;;;;;;5011647;28;20357;-78
2023/04/06 00:52:59;;;;;;;10.88;9.02;;;6.20;50.20;;;;;;5015498;28;20182;-79
2023/04/06 00:55:27;;;;;;;9.75;7.88;;;6.10;49.40;;;;;;4993879;28;20195;-79
2023/04/06 00:57:54;;;;;;;11.07;7.95;;;6.10;49.10;;;;;;4994394;28;20175;-78
2023/04/06 01:00:20;;;;;;;12.05;8.10;;;6.10;49.00;;;;;;5010476;28;20171;-78
2023/04/06 01:02:50;;;;;;;10.05;6.43;;;6.10;48.40;;;;;;4992856;28;20294;-78
2023/04/06 01:05:19;;;;;;;11.43;7.18;;;6.20;48.50;;;;;;5010021;28;20551;-79
2023/04/06 01:07:52;;;;;;;12.05;8.20;;;6.10;48.70;;;;;;4994578;28;20166;-78
2023/04/06 01:10:27;;;;;;;9.18;6.65;;;6.10;48.80;;;;;;4999488;28;20175;-78
2023/04/06 01:12:59;;;;;;;9.00;5.28;;;6.10;48.60;;;;;;4981030;28;20244;-78
2023/04/06 01:15:57;;;;;;;8.70;6.25;;;6.10;48.30;;;;;;5006335;28;20686;-79
2023/04/06 01:18:45;;;;;;;6.50;5.80;;;6.10;48.30;;;;;;4989868;28;20300;-77
2023/04/06 01:21:16;;;;;;;8.88;6.13;;;6.10;48.20;;;;;;5003201;28;20185;-78
2023/04/06 01:23:56;;;;;;;8.30;6.10;;;6.10;48.60;;;;;;4996722;28;20174;-78
2023/04/06 01:26:30;;;;;;;7.72;6.40;;;6.00;48.60;;;;;;5012188;28;20285;-77
2023/04/06 01:28:58;;;;;;;7.80;5.55;;;6.00;48.60;;;;;;5006468;28;20189;-77
2023/04/06 01:31:28;;;;;;;6.15;5.55;;;6.00;48.80;;;;;;5007039;28;20186;-77
2023/04/06 01:33:54;;;;;;;7.60;5.90;;;5.90;48.60;;;;;;4994986;28;20674;-77
2023/04/06 01:36:23;;;;;;;11.10;5.30;;;5.90;48.50;;;;;;4994802;28;20206;-77
2023/04/06 01:38:58;;;;;;;8.07;5.18;;;5.90;48.80;;;;;;5012120;28;20173;-76
2023/04/06 01:41:32;;;;;;;10.40;7.65;;;5.90;49.00;;;;;;5011082;28;20171;-77
2023/04/06 01:43:58;;;;;;;6.20;4.97;;;5.90;49.70;;;;;;5011233;28;20184;-76
2023/04/06 01:46:27;;;;;;;5.95;4.93;;;5.80;48.70;;;;;;4995130;28;20670;-77
2023/04/06 01:48:53;;;;;;;6.20;4.80;;;5.80;48.70;;;;;;4995001;28;20170;-77
2023/04/06 01:51:33;;;;;;;7.72;4.70;;;5.80;49.60;;;;;;5010761;28;20634;-77
2023/04/06 01:54:01;;;;;;;7.38;4.85;;;5.80;49.40;;;;;;4995022;28;20185;-77
2023/04/06 01:56:50;;;;;;;6.20;4.22;;;5.80;50.30;;;;;;5010494;28;20295;-77
2023/04/06 01:59:26;;;;;;;6.10;4.82;;;5.80;49.90;;;;;;5010288;28;20569;-77
2023/04/06 02:01:52;;;;;;;6.10;4.53;;;5.80;50.00;;;;;;4993556;28;20686;-77
2023/04/06 02:04:18;;;;;;;7.47;4.60;;;5.80;49.90;;;;;;5011535;28;20176;-77
2023/04/06 02:06:47;;;;;;;5.75;4.90;;;5.80;50.50;;;;;;4983875;28;20187;-77
2023/04/06 02:09:15;;;;;;;6.40;5.28;;;5.80;49.60;;;;;;4993492;28;20174;-77
2023/04/06 02:11:41;;;;;;;5.53;4.25;;;5.80;49.90;;;;;;4993136;28;20202;-77
2023/04/06 02:14:07;;;;;;;7.17;4.03;;;5.80;49.70;;;;;;5009588;28;20198;-77
2023/04/06 02:16:38;;;;;;;6.43;4.45;;;5.80;49.90;;;;;;4977723;28;20179;-76
2023/04/06 02:19:04;;;;;;;7.13;4.87;;;5.80;50.10;;;;;;4993573;28;20265;-77
2023/04/06 02:21:30;;;;;;;6.50;4.63;;;5.70;49.70;;;;;;4996829;28;20625;-79
2023/04/06 02:23:55;;;;;;;7.40;4.60;;;5.70;50.20;;;;;;5017098;28;20571;-78
2023/04/06 02:26:21;;;;;;;6.63;4.47;;;5.70;50.00;;;;;;4977912;28;20674;-77
2023/04/06 02:28:47;;;;;;;6.00;4.70;;;5.70;50.20;;;;;;4993817;28;20167;-77
2023/04/06 02:31:14;;;;;;;4.00;3.50;;;5.60;49.90;;;;;;5010403;28;20173;-78
2023/04/06 02:33:41;;;;;;;5.30;4.25;;;5.60;50.00;;;;;;4993927;28;20181;-77
2023/04/06 02:36:07;;;;;;;6.90;4.80;;;5.60;51.00;;;;;;5008875;28;20550;-77
2023/04/06 02:38:33;;;;;;;7.90;4.80;;;5.60;51.70;;;;;;5009881;28;20193;-77
2023/04/06 02:41:00;;;;;;;6.68;5.38;;;5.50;51.70;;;;;;4993345;28;20593;-77
2023/04/06 02:43:28;;;;;;;7.00;4.95;;;5.50;52.10;;;;;;4981603;28;20694;-77
2023/04/06 02:46:14;;;;;;;4.57;4.00;;;5.50;51.30;;;;;;5008918;28;20209;-77
2023/04/06 02:48:40;;;;;;;8.27;4.35;;;5.50;50.90;;;;;;5011118;28;20170;-77
2023/04/06 02:51:06;;;;;;;8.10;4.95;;;5.50;50.90;;;;;;4996227;28;20224;-77
2023/04/06 02:53:32;;;;;;;6.25;4.53;;;5.40;51.00;;;;;;4996345;28;20185;-77
2023/04/06 02:55:58;;;;;;;7.60;4.90;;;5.40;51.00;;;;;;5013057;28;20245;-77
2023/04/06 02:58:30;;;;;;;6.63;4.57;;;5.40;51.20;;;;;;5012780;28;20186;-77
2023/04/06 03:00:57;;;;;;;6.53;5.20;;;5.40;51.70;;;;;;5003130;28;20515;-76
2023/04/06 03:03:23;;;;;;;7.03;4.97;;;5.40;51.30;;;;;;5031978;28;20202;-76
2023/04/06 03:05:49;;;;;;;5.93;4.68;;;5.40;51.30;;;;;;4999805;28;20193;-77
2023/04/06 03:08:19;;;;;;;5.95;4.55;;;5.40;51.10;;;;;;5015609;28;20523;-76
2023/04/06 03:10:45;;;;;;;6.70;5.45;;;5.30;51.60;;;;;;5016067;28;20190;-76
2023/04/06 03:13:12;;;;;;;7.20;5.75;;;5.30;52.00;;;;;;5031570;28;20181;-77
2023/04/06 03:15:50;;;;;;;7.25;4.68;;;5.30;51.70;;;;;;5017845;28;20202;-77
2023/04/06 03:18:22;;;;;;;5.85;4.05;;;5.30;51.60;;;;;;5008539;28;20189;-78
2023/04/06 03:20:50;;;;;;;7.68;4.80;;;5.30;51.80;;;;;;4999451;28;20213;-77
2023/04/06 03:23:17;;;;;;;6.43;5.10;;;5.30;51.90;;;;;;4995722;28;20260;-77
2023/04/06 03:25:45;;;;;;;5.85;4.28;;;5.30;52.40;;;;;;5012215;28;20201;-77
2023/04/06 03:28:15;;;;;;;8.95;4.30;;;5.30;51.90;;;;;;5012501;28;20260;-77
2023/04/06 03:31:01;;;;;;;4.72;3.83;;;5.30;51.70;;;;;;5011086;28;20178;-77
2023/04/06 03:33:45;;;;;;;5.50;4.88;;;5.30;52.20;;;;;;5012852;28;20181;-77
2023/04/06 03:36:21;;;;;;;5.40;4.30;;;5.20;52.20;;;;;;4995471;28;20575;-77
2023/04/06 03:38:47;;;;;;;6.77;4.33;;;5.20;52.10;;;;;;5012469;28;20266;-77
2023/04/06 03:41:14;;;;;;;4.75;3.78;;;5.20;52.20;;;;;;4995241;28;20620;-78
2023/04/06 03:43:45;;;;;;;8.18;4.70;;;5.20;52.20;;;;;;4980364;28;20252;-77
2023/04/06 03:46:11;;;;;;;6.13;4.88;;;5.20;52.60;;;;;;4995266;28;20264;-77
2023/04/06 03:48:37;;;;;;;6.97;5.18;;;5.20;53.10;;;;;;5012301;28;20170;-77
2023/04/06 03:51:05;;;;;;;6.85;5.03;;;5.20;52.90;;;;;;5011464;28;20245;-77
2023/04/06 03:53:31;;;;;;;7.03;5.00;;;5.20;52.80;;;;;;4995832;28;20178;-78
2023/04/06 03:55:56;;;;;;;6.07;4.97;;;5.10;53.80;;;;;;4995294;28;20950;-77
2023/04/06 03:58:22;;;;;;;5.87;4.40;;;5.10;54.30;;;;;;4982058;28;20665;-77
2023/04/06 04:00:48;;;;;;;5.47;4.77;;;5.10;54.30;;;;;;4995599;28;20183;-77
2023/04/06 04:03:14;;;;;;;5.43;4.43;;;5.10;55.30;;;;;;4998403;28;20205;-77
2023/04/06 04:05:41;;;;;;;9.07;4.68;;;5.10;54.50;;;;;;5022322;28;20204;-77
2023/04/06 04:08:08;;;;;;;5.32;4.20;;;5.10;53.90;;;;;;5025745;28;20222;-78
2023/04/06 04:10:34;;;;;;;5.43;4.88;;;5.10;53.70;;;;;;5021045;28;20166;-77
2023/04/06 04:13:00;;;;;;;6.20;4.77;;;5.10;53.40;;;;;;4994447;28;20181;-78
2023/04/06 04:15:26;;;;;;;6.10;4.45;;;5.10;53.80;;;;;;4987154;28;20201;-78
2023/04/06 04:17:52;;;;;;;5.00;3.80;;;5.10;54.70;;;;;;5012480;28;20194;-77
2023/04/06 04:20:18;;;;;;;6.83;4.97;;;5.10;54.70;;;;;;5011479;28;20622;-77
2023/04/06 04:22:44;;;;;;;8.37;6.00;;;5.10;55.10;;;;;;4994721;28;20224;-77
2023/04/06 04:25:10;;;;;;;6.22;5.50;;;5.10;55.30;;;;;;4994990;28;20614;-76
2023/04/06 04:27:42;;;;;;;8.70;5.70;;;5.10;55.00;;;;;;5011478;28;20206;-77
2023/04/06 04:30:08;;;;;;;8.20;5.00;;;5.10;55.20;;;;;;5010974;28;20581;-77
2023/04/06 04:32:34;;;;;;;7.28;5.88;;;5.10;55.70;;;;;;5010627;28;20170;-77
2023/04/06 04:35:03;;;;;;;6.78;5.60;;;5.10;55.70;;;;;;4999753;28;20214;-77
2023/04/06 04:37:35;;;;;;;7.90;4.80;;;5.10;56.90;;;;;;5011804;28;20186;-76
2023/04/06 04:40:02;;;;;;;6.10;4.72;;;5.10;56.00;;;;;;4994454;28;20201;-77
2023/04/06 04:42:32;;;;;;;6.82;5.60;;;5.00;56.10;;;;;;5010677;28;20302;-77
2023/04/06 04:44:59;;;;;;;8.05;5.32;;;5.00;57.40;;;;;;5010968;28;20550;-77
2023/04/06 04:47:32;;;;;;;8.27;5.43;;;5.00;56.20;;;;;;5011403;28;20186;-77
2023/04/06 04:49:59;;;;;;;8.00;6.10;;;5.00;58.00;;;;;;5010590;28;20174;-77
2023/04/06 04:52:25;;;;;;;10.00;7.00;;;5.00;59.20;;;;;;5011787;28;20175;-77
2023/04/06 04:55:11;;;;;;;6.80;5.88;;;5.00;58.40;;;;;;5011149;28;20285;-77
2023/04/06 04:57:37;;;;;;;6.00;5.07;;;4.90;59.50;;;;;;5012569;28;20325;-77
2023/04/06 05:00:05;;;;;;;6.85;5.50;;;5.00;59.70;;;;;;5010957;28;20644;-77
2023/04/06 05:02:32;;;;;;;6.35;4.85;;;5.00;58.70;;;;;;5009953;28;20221;-78
2023/04/06 05:05:11;;;;;;;8.50;5.85;;;5.00;58.30;;;;;;5010920;28;20232;-77
2023/04/06 05:07:38;;;;;;;7.93;6.13;;;5.00;58.80;;;;;;4994045;28;20585;-77
2023/04/06 05:10:07;;;;;;;6.47;5.88;;;5.00;58.60;;;;;;5015660;28;20174;-78
2023/04/06 05:12:39;;;;;;;7.35;5.15;;;5.00;58.30;;;;;;5009715;28;20213;-77
2023/04/06 05:15:08;;;;;;;5.47;4.03;;;5.00;59.40;;;;;;5030357;28;20572;-77
2023/04/06 05:17:34;;;;;;;7.63;6.13;;;5.00;58.50;;;;;;5013352;28;20177;-77
2023/04/06 05:20:00;;;;;;;6.67;5.30;;;5.10;58.90;;;;;;4997401;28;20231;-78
2023/04/06 05:22:30;;;;;;;6.90;4.50;;;5.10;58.20;;;;;;4993879;28;20644;-77
2023/04/06 05:25:15;;;;;;;5.32;4.57;;;5.10;57.70;;;;;;5010466;28;20191;-78
2023/04/06 05:27:41;;;;;;;4.75;4.25;;;5.20;58.10;;;;;;5010139;28;20886;-78
2023/04/06 05:30:18;;;;;;;7.20;6.05;;;5.10;58.10;;;;;;4995911;28;20178;-78
2023/04/06 05:32:46;;;;;;;5.95;5.35;;;5.20;59.30;;;;;;4993122;28;20678;-77
2023/04/06 05:35:12;;;;;;;7.55;4.80;;;5.20;58.40;;;;;;4993939;28;20308;-78
2023/04/06 05:37:40;;;;;;;10.32;6.75;;;5.20;58.20;;;;;;5010362;28;20178;-77
2023/04/06 05:40:06;;;;;;;7.95;5.90;;;5.30;59.60;;;;;;4993473;28;20178;-78
2023/04/06 05:42:43;;;;;;;8.13;5.57;;;5.20;60.50;;;;;;4993128;28;20269;-78
2023/04/06 05:45:11;;;;;;;5.55;5.05;;;5.30;59.50;;;;;;4993632;28;20198;-77
2023/04/06 05:47:37;;;;;;;6.22;5.57;;;5.30;58.90;;;;;;5010288;28;20594;-77
2023/04/06 05:50:16;;;;;;;8.27;5.07;;;5.40;58.70;;;;;;5014657;28;20191;-77
2023/04/06 05:52:43;;;;;;;5.17;4.50;;;5.40;60.00;;;;;;5009826;28;20178;-77
2023/04/06 05:55:10;;;;;;;6.82;5.47;;;5.50;59.30;;;;;;4993207;28;20720;-77
2023/04/06 05:57:38;;;;;;;8.88;5.28;;;5.50;59.50;;;;;;4993769;28;20178;-78
2023/04/06 06:00:06;;;;;;;8.73;5.20;;;5.50;59.60;;;;;;5009516;28;20186;-77
2023/04/06 06:02:50;;;;;;;7.63;6.07;;;5.50;59.50;;;;;;5025184;28;20730;-77
2023/04/06 06:05:21;;;;;;;6.65;4.30;;;5.60;60.10;;;;;;5010812;28;20587;-77
2023/04/06 06:07:47;;;;;;;9.13;6.35;;;5.70;59.80;;;;;;5021127;28;20573;-77
2023/04/06 06:10:13;;;;;;;7.33;5.43;;;5.70;60.00;;;;;;5012864;28;20173;-77
2023/04/06 06:12:39;;;;;;;6.00;4.80;;;5.80;60.00;;;;;;5012684;28;20596;-77
2023/04/06 06:15:07;;;;;;;5.22;4.65;;;5.90;59.60;;;;;;5013335;28;20635;-77
2023/04/06 06:17:38;;;;;;;9.63;6.32;;;6.00;59.40;;;;;;5029526;28;20185;-78
2023/04/06 06:20:08;;;;;;;9.13;5.68;;;6.00;60.50;;;;;;5013002;28;20178;-79
2023/04/06 06:22:35;;;;;;;7.35;4.75;;;6.00;60.50;;;;;;5003263;28;20202;-77
2023/04/06 06:25:02;;;;;;;11.93;6.00;;;6.20;59.90;;;;;;5013643;28;20657;-77
2023/04/06 06:27:28;;;;;;;6.32;5.35;;;6.30;60.30;;;;;;5019773;28;20167;-77
2023/04/06 06:29:53;;;;;;;5.50;4.50;;;6.40;60.00;;;;;;4997233;28;20174;-77
2023/04/06 06:32:19;;;;;;;5.13;4.10;;;6.50;60.00;;;;;;5015526;28;20588;-77
2023/04/06 06:34:49;;;;;;;6.65;4.82;;;6.60;59.70;;;;;;5013294;28;20229;-77
2023/04/06 06:37:15;;;;;;;6.60;4.83;;;6.70;59.70;;;;;;5029317;28;20218;-77
2023/04/06 06:39:40;;;;;;;6.53;5.10;;;6.80;59.90;;;;;;5030029;28;20945;-77
2023/04/06 06:42:06;;;;;;;7.63;5.50;;;6.90;60.50;;;;;;5012589;28;20213;-77
2023/04/06 06:44:51;;;;;;;9.60;6.00;;;7.00;60.20;;;;;;4997126;28;20979;-77
2023/04/06 06:47:17;;;;;;;5.83;5.00;;;7.10;61.30;;;;;;5032407;28;20172;-77
2023/04/06 06:49:43;;;;;;;7.68;4.80;;;7.30;60.70;;;;;;5016174;28;20620;-77
2023/04/06 06:52:12;;;;;;;7.30;5.60;;;7.60;61.00;;;;;;5033792;28;20213;-77
2023/04/06 06:54:38;;;;;;;8.18;4.97;;;8.10;62.00;;;;;;5015948;28;20541;-77
2023/04/06 06:57:03;;;;;;;7.73;6.00;;;8.70;63.50;;;;;;5033145;28;20181;-78
2023/04/06 06:59:29;;;;;;;8.03;6.00;;;9.30;63.80;;;;;;5032632;28;20558;-78
2023/04/06 07:01:55;;;;;;;8.05;6.70;;;10.00;63.10;;;;;;5032246;28;20173;-78
2023/04/06 07:04:21;;;;;;;7.73;5.80;;;10.70;61.50;;;;;;5027866;28;20166;-78
2023/04/06 07:06:47;;;;;;;9.07;6.67;;;11.40;61.90;;;;;;5032813;28;20550;-78
2023/04/06 07:09:12;;;;;;;9.70;6.57;;;12.30;62.30;;;;;;5035567;28;20173;-78
2023/04/06 07:11:39;;;;;;;7.70;5.47;;;13.00;61.50;;;;;;5032163;28;20184;-78
2023/04/06 07:14:05;;;;;;;10.30;7.30;;;13.90;60.50;;;;;;5032325;28;20677;-79
2023/04/06 07:16:30;;;;;;;8.83;6.43;;;14.70;58.20;;;;;;5015750;28;20608;-79
2023/04/06 07:18:56;;;;;;;7.77;5.20;;;15.20;56.20;;;;;;5033751;28;20652;-78
2023/04/06 07:21:22;;;;;;;7.20;5.80;;;15.90;56.50;;;;;;5021260;28;20531;-78
2023/04/06 07:23:48;;;;;;;6.83;6.00;;;16.50;55.80;;;;;;5012539;28;20263;-78
2023/04/06 07:26:14;;;;;;;6.20;5.43;;;17.10;55.90;;;;;;5011890;28;20625;-78
2023/04/06 07:28:40;;;;;;;7.97;6.00;;;17.70;55.30;;;;;;5012639;28;20588;-77
2023/04/06 07:31:07;;;;;;;6.13;5.53;;;18.30;54.80;;;;;;5011592;28;20265;-76
2023/04/06 07:33:33;;;;;;;8.40;4.93;;;19.10;54.50;;;;;;4995440;28;20581;-77
2023/04/06 07:35:59;;;;;;;7.40;5.23;;;19.80;54.90;;;;;;4999942;28;20739;-78
2023/04/06 07:38:25;;;;;;;9.13;5.57;;;20.00;53.30;;;;;;5023946;28;20178;-77
2023/04/06 07:40:51;;;;;;;5.73;5.17;;;20.00;50.10;;;;;;5025080;28;21180;-78
2023/04/06 07:43:18;;;;;;;9.30;6.20;;;19.80;49.70;;;;;;5003729;28;20695;-77
2023/04/06 07:45:44;;;;;;;5.63;5.13;;;19.70;48.80;;;;;;5023580;28;20628;-78
2023/04/06 07:48:10;;;;;;;8.73;6.03;;;19.40;47.80;;;;;;5006675;28;20176;-78
2023/04/06 07:50:36;;;;;;;6.13;5.47;;;19.00;46.90;;;;;;5032743;28;20611;-78
2023/04/06 07:53:03;;;;;;;7.37;5.27;;;18.70;47.20;;;;;;5031042;28;20624;-78
2023/04/06 07:55:30;;;;;;;6.20;5.60;;;18.40;47.40;;;;;;5015131;28;20703;-78
2023/04/06 07:57:55;;;;;;;5.90;5.30;;;18.30;47.20;;;;;;5015876;28;21219;-78
2023/04/06 08:00:22;;;;;;;6.80;4.97;;;18.20;47.70;;;;;;5004429;28;20621;-78
2023/04/06 08:02:47;;;;;;;7.47;6.60;;;18.10;47.60;;;;;;5010890;28;20666;-77
2023/04/06 08:05:13;;;;;;;8.47;6.43;;;17.90;46.90;;;;;;5013119;28;20605;-77
2023/04/06 08:07:39;;;;;;;7.20;6.43;;;17.60;44.80;;;;;;5013218;28;20548;-78
2023/04/06 08:10:05;;;;;;;8.13;5.90;;;17.40;46.00;;;;;;4994870;28;20240;-77
2023/04/06 08:12:33;;;;;;;7.23;5.93;;;17.70;47.30;;;;;;5011166;28;20589;-77
2023/04/06 08:14:59;;;;;;;9.53;5.40;;;17.90;47.00;;;;;;5012552;28;20621;-77
2023/04/06 08:17:27;;;;;;;6.23;5.63;;;18.20;47.70;;;;;;5012809;28;20589;-77
2023/04/06 08:19:52;;;;;;;9.33;5.50;;;18.40;47.70;;;;;;5012163;28;20592;-77
2023/04/06 08:22:18;;;;;;;7.67;6.67;;;18.60;47.40;;;;;;4977985;28;20997;-76
2023/04/06 08:24:44;;;;;;;7.63;6.50;;;18.70;47.00;;;;;;5010967;28;20572;-78
2023/04/06 08:27:10;;;;;;;5.40;4.90;;;18.90;46.70;;;;;;5012424;28;20545;-78
2023/04/06 08:29:36;;;;;;;7.77;6.90;;;19.20;47.50;;;;;;5012269;28;20166;-78
2023/04/06 08:32:04;;;;;;;7.20;5.77;;;19.40;45.00;;;;;;5011814;28;20588;-79
2023/04/06 08:34:32;;;;;;;7.23;6.23;;;19.30;45.10;;;;;;5011291;28;20181;-79
2023/04/06 08:36:58;;;;;;;6.73;6.03;;;19.10;44.50;;;;;;5012551;28;20577;-79
2023/04/06 08:39:25;;;;;;;8.00;6.17;;;18.90;44.70;;;;;;4995485;28;20584;-78
2023/04/06 08:41:52;;;;;;;8.50;6.80;;;18.90;45.30;;;;;;5011704;28;20585;-78
2023/04/06 08:44:18;;;;;;;7.03;5.23;;;18.80;45.50;;;;;;5012623;28;20597;-78
2023/04/06 08:46:44;;;;;;;5.63;4.83;;;19.00;45.80;;;;;;5009970;28;20656;-78
2023/04/06 08:49:12;;;;;;;7.10;5.47;;;19.20;46.40;;;;;;4994499;28;20628;-78
2023/04/06 08:51:39;;;;;;;6.70;5.47;;;19.60;46.50;;;;;;5010323;28;20592;-78
2023/04/06 08:54:05;;;;;;;8.90;7.03;;;19.90;46.70;;;;;;5010786;28;20597;-78
2023/04/06 08:56:31;;;;;;;7.70;6.77;;;20.10;45.50;;;;;;5024660;28;20609;-78
2023/04/06 08:58:57;;;;;;;7.13;5.60;;;19.90;43.70;;;;;;5017279;28;20190;-78
2023/04/06 09:01:27;;;;;;;9.40;7.23;;;19.80;43.80;;;;;;4991135;28;20598;-79
2023/04/06 09:04:04;;;;;;;11.07;6.63;;;19.40;41.90;;;;;;4990421;28;20669;-77
2023/04/06 09:06:31;;;;;;;8.27;6.63;;;19.50;43.40;;;;;;4990834;28;20704;-78
2023/04/06 09:08:57;;;;;;;9.87;7.50;;;19.60;43.40;;;;;;4990449;28;20685;-78
2023/04/06 09:11:23;;;;;;;15.53;6.47;;;19.60;44.00;;;;;;4990675;28;20578;-78
2023/04/06 09:13:54;;;;;;;7.83;6.47;;;19.90;44.40;;;;;;4974262;28;21046;-78
2023/04/06 09:16:20;;;;;;;7.37;5.73;;;20.20;44.30;;;;;;5007428;28;20618;-78
2023/04/06 09:18:47;;;;;;;12.73;6.50;;;20.40;44.60;;;;;;4992069;28;20574;-78
2023/04/06 09:21:17;;;;;;;9.00;7.10;;;20.50;44.00;;;;;;4998848;28;20629;-78
2023/04/06 09:23:42;;;;;;;7.67;6.50;;;20.80;44.00;;;;;;4994372;28;20702;-78
2023/04/06 09:26:11;;;;;;;10.10;6.80;;;20.50;42.70;;;;;;5009915;28;20715;-79
2023/04/06 09:28:54;;;;;;;7.47;6.43;;;20.40;43.30;;;;;;4978026;28;20216;-78
2023/04/06 09:31:25;;;;;;;7.23;6.27;;;20.10;42.80;;;;;;5010253;28;20600;-80
2023/04/06 09:33:54;;;;;;;8.67;6.00;;;20.00;43.00;;;;;;5014644;28;21125;-80
2023/04/06 09:36:28;;;;;;;11.30;7.37;;;20.00;43.30;;;;;;4977817;28;20774;-78
2023/04/06 09:38:59;;;;;;;7.80;6.63;;;19.80;42.90;;;;;;4994357;28;20616;-79
2023/04/06 09:41:27;;;;;;;10.60;7.80;;;19.80;43.10;;;;;;5011414;28;20589;-77
2023/04/06 09:44:05;;;;;;;9.33;6.30;;;19.70;43.40;;;;;;5010483;28;20645;-78
2023/04/06 09:46:33;;;;;;;11.50;7.80;;;19.80;42.60;;;;;;5011266;28;20615;-79
2023/04/06 09:49:01;;;;;;;6.77;6.10;;;19.90;43.80;;;;;;5010428;28;21148;-79
2023/04/06 09:51:35;;;;;;;8.43;7.20;;;20.00;43.70;;;;;;5018001;28;20600;-78
2023/04/06 09:54:03;;;;;;;8.23;7.33;;;20.10;43.80;;;;;;5025467;28;20599;-78
2023/04/06 09:57:03;;;;;;;8.47;7.23;;;20.00;43.00;;;;;;5034367;28;20623;-79
2023/04/06 09:59:57;;;;;;;8.70;7.80;;;20.10;42.90;;;;;;5011632;28;20606;-78
2023/04/06 10:02:50;;;;;;;8.47;6.53;;;19.80;42.60;;;;;;4960726;28;20708;-78
2023/04/06 10:05:39;;;;;;;8.27;6.00;;;19.90;43.30;;;;;;4996126;28;20712;-78
2023/04/06 10:08:10;;;;;;;9.27;6.80;;;20.30;43.80;;;;;;4988876;28;20590;-78
2023/04/06 10:10:36;;;;;;;9.37;7.03;;;20.80;44.90;;;;;;4985161;28;20651;-79
2023/04/06 10:13:03;;;;;;;8.57;6.80;;;21.30;45.30;;;;;;5008325;28;20580;-80
2023/04/06 10:15:30;;;;;;;12.63;8.93;;;21.60;44.90;;;;;;5001907;28;20703;-80
2023/04/06 10:17:57;;;;;;;9.33;6.90;;;21.80;42.60;;;;;;5023808;28;20608;-80
2023/04/06 10:20:37;;;;;;;6.77;6.07;;;21.90;43.50;;;;;;5012658;28;20592;-81
2023/04/06 10:23:28;;;;;;;7.97;5.60;;;22.00;43.70;;;;;;4997357;28;20636;-82
2023/04/06 10:25:59;;;;;;;8.80;6.57;;;22.10;43.40;;;;;;5021231;28;20670;-82
2023/04/06 10:28:25;;;;;;;8.27;6.30;;;22.40;44.00;;;;;;5025167;28;20580;-82
2023/04/06 10:30:59;;;;;;;8.10;6.80;;;22.70;43.90;;;;;;5030346;28;20645;-82
2023/04/06 10:33:26;;;;;;;10.63;6.90;;;22.90;43.90;;;;;;5014941;28;20973;-82
2023/04/06 10:35:52;;;;;;;7.80;6.47;;;22.80;42.90;;;;;;5012042;28;20637;-84
2023/04/06 10:38:21;;;;;;;9.17;6.63;;;22.50;42.50;;;;;;5009418;28;20592;-84
2023/04/06 10:40:48;;;;;;;8.53;6.30;;;22.30;42.40;;;;;;5014293;28;20984;-84
2023/04/06 10:43:19;;;;;;;8.40;6.83;;;22.30;42.60;;;;;;4995358;28;20695;-84
2023/04/06 10:45:59;;;;;;;9.53;7.07;;;22.20;42.40;;;;;;5014835;28;20708;-85
2023/04/06 10:48:35;;;;;;;7.57;6.80;;;22.10;42.10;;;;;;5028574;28;20655;-84
2023/04/06 10:51:01;;;;;;;7.80;6.93;;;21.90;42.10;;;;;;5034337;28;20619;-84
2023/04/06 10:53:27;;;;;;;9.10;6.97;;;21.80;42.10;;;;;;5033825;28;21009;-82
2023/04/06 10:55:56;;;;;;;9.83;8.43;;;21.80;42.40;;;;;;5032975;28;20244;-82
2023/04/06 10:58:25;;;;;;;8.43;7.50;;;21.70;41.60;;;;;;5032648;28;20627;-82
2023/04/06 11:00:51;;;;;;;10.03;7.50;;;21.40;41.30;;;;;;5032794;28;20591;-82
2023/04/06 11:03:18;;;;;;;11.80;8.10;;;21.20;40.70;;;;;;5026744;28;20647;-82
2023/04/06 11:05:48;;;;;;;8.30;6.80;;;20.70;40.30;;;;;;5027223;28;20654;-78
2023/04/06 11:08:27;;;;;;;10.57;7.40;;;20.30;40.20;;;;;;5031509;28;20584;-77
2023/04/06 11:11:05;;;;;;;8.20;6.73;;;19.90;40.50;;;;;;5031901;28;20580;-77
2023/04/06 11:14:03;;;;;;;9.50;7.47;;;19.80;40.70;;;;;;5020955;28;20612;-77
2023/04/06 11:16:31;;;;;;;10.63;7.40;;;19.60;41.20;;;;;;4965827;28;20736;-77
2023/04/06 11:19:01;;;;;;;10.80;8.53;;;19.50;41.40;;;;;;5022245;28;21169;-77
2023/04/06 11:21:39;;;;;;;10.40;7.47;;;19.50;41.20;;;;;;5008124;28;21029;-77
2023/04/06 11:24:04;;;;;;;8.90;7.57;;;19.50;41.60;;;;;;5023753;28;20646;-77
2023/04/06 11:26:30;;;;;;;10.77;7.90;;;19.60;42.00;;;;;;5004166;28;20988;-78
2023/04/06 11:28:56;;;;;;;11.50;8.13;;;19.70;42.10;;;;;;5022078;28;20261;-78
2023/04/06 11:31:26;;;;;;;9.43;6.93;;;19.80;42.10;;;;;;5021533;28;20181;-78
2023/04/06 11:33:57;;;;;;;10.50;7.70;;;19.90;42.10;;;;;;5021542;28;20588;-78
2023/04/06 11:36:23;;;;;;;11.10;8.53;;;20.00;42.20;;;;;;5021449;28;20647;-78
2023/04/06 11:38:49;;;;;;;11.17;8.30;;;20.20;42.30;;;;;;5020919;28;20593;-78
2023/04/06 11:41:15;;;;;;;9.43;7.00;;;20.30;42.30;;;;;;5003579;28;20589;-78
2023/04/06 11:43:47;;;;;;;9.63;7.20;;;20.40;42.20;;;;;;5023743;28;20699;-78
2023/04/06 11:46:18;;;;;;;7.97;6.60;;;20.50;41.90;;;;;;5023387;28;20609;-78
2023/04/06 11:48:45;;;;;;;9.20;6.70;;;20.50;42.60;;;;;;5020337;28;20581;-78
2023/04/06 11:51:11;;;;;;;8.07;6.37;;;20.60;42.00;;;;;;5021311;28;20905;-78
2023/04/06 11:53:45;;;;;;;12.50;7.30;;;20.60;42.00;;;;;;5012075;28;20603;-78
2023/04/06 11:56:22;;;;;;;9.03;7.67;;;20.70;41.80;;;;;;5014756;28;20232;-78
2023/04/06 11:58:47;;;;;;;7.03;5.50;;;20.70;41.90;;;;;;5016889;28;20919;-78
2023/04/06 12:01:13;;;;;;;8.47;6.90;;;20.70;41.90;;;;;;5021391;28;20592;-78
2023/04/06 12:03:39;;;;;;;8.03;6.40;;;20.70;41.90;;;;;;5019789;28;20194;-78
2023/04/06 12:06:05;;;;;;;7.70;5.67;;;20.70;41.80;;;;;;5021960;28;21478;-78
2023/04/06 12:08:30;;;;;;;9.10;6.43;;;20.70;41.80;;;;;;5021019;28;20289;-78
2023/04/06 12:10:56;;;;;;;7.57;5.90;;;20.70;41.90;;;;;;5021871;28;20716;-78
2023/04/06 12:13:22;;;;;;;8.10;6.67;;;20.80;42.00;;;;;;5006042;28;20255;-78
2023/04/06 12:15:48;;;;;;;8.90;7.03;;;20.90;42.10;;;;;;5033458;28;20214;-78
2023/04/06 12:18:13;;;;;;;8.60;7.00;;;20.90;41.90;;;;;;5033434;28;20200;-78
2023/04/06 12:20:39;;;;;;;8.27;6.33;;;21.00;41.90;;;;;;5026628;28;20213;-78
2023/04/06 12:23:05;;;;;;;10.40;6.70;;;21.10;41.90;;;;;;5014740;28;20613;-79
2023/04/06 12:25:31;;;;;;;8.33;7.20;;;21.10;41.80;;;;;;5010822;28;20686;-78
2023/04/06 12:27:57;;;;;;;9.13;6.80;;;21.10;41.40;;;;;;5012803;28;20623;-78
2023/04/06 12:30:23;;;;;;;7.40;5.70;;;21.10;41.20;;;;;;5011053;28;20178;-79
2023/04/06 12:32:50;;;;;;;8.43;6.27;;;21.00;40.90;;;;;;5018298;28;21082;-78
2023/04/06 12:35:16;;;;;;;8.20;6.30;;;20.90;41.00;;;;;;5016748;28;20255;-77
2023/04/06 12:37:42;;;;;;;9.30;6.50;;;20.80;40.80;;;;;;5021434;28;20596;-77
2023/04/06 12:40:10;;;;;;;8.93;6.90;;;20.60;41.00;;;;;;5019760;28;21268;-78
2023/04/06 12:42:36;;;;;;;9.43;6.17;;;20.50;41.10;;;;;;5024968;28;20670;-78
2023/04/06 12:45:02;;;;;;;11.17;7.50;;;20.50;41.10;;;;;;5027047;28;20596;-78
2023/04/06 12:47:28;;;;;;;12.17;7.63;;;20.40;41.00;;;;;;5030769;28;20573;-78
2023/04/06 12:49:54;;;;;;;15.20;6.90;;;20.20;40.90;;;;;;5031223;28;20588;-78
2023/04/06 12:52:20;;;;;;;9.37;7.00;;;20.10;41.00;;;;;;5019297;28;20585;-79
2023/04/06 12:54:47;;;;;;;8.43;6.27;;;20.00;41.30;;;;;;5012500;28;20688;-78
2023/04/06 12:57:13;;;;;;;8.23;6.03;;;20.00;41.50;;;;;;5016988;28;20261;-78
2023/04/06 12:59:44;;;;;;;10.67;6.00;;;19.90;41.50;;;;;;5025401;28;21047;-78